Time;durP1;ratioP1;P1;durP2;ratioP2;P2;SDS_P1;SDS_P2;PMS_P1;PMS_P2;Temp;Humidity;BMP_temperature;BMP_pressure;BME280_temperature;BME280_humidity;BME280_pressure;Samples;Min_cycle;Max_cycle;Signal;HPM_P1;HPM_P2
2022/08/24 00:00:54;;;;;;;26.10;19.90;;;22.60;66.10;;;;;;4973859;28;20059;-77
2022/08/24 00:03:21;;;;;;;24.77;19.33;;;22.60;66.10;;;;;;4955998;28;20054;-77
2022/08/24 00:05:48;;;;;;;27.67;21.75;;;22.60;66.10;;;;;;4973816;28;20062;-77
2022/08/24 00:08:17;;;;;;;30.98;23.92;;;22.50;66.40;;;;;;4956282;28;20055;-76
2022/08/24 00:10:45;;;;;;;28.02;22.17;;;22.50;66.80;;;;;;4973635;28;20051;-76
2022/08/24 00:13:12;;;;;;;22.67;18.73;;;22.50;66.80;;;;;;4956411;28;20118;-77
2022/08/24 00:15:39;;;;;;;28.55;22.48;;;22.50;66.70;;;;;;4973394;28;20055;-77
2022/08/24 00:18:06;;;;;;;31.45;24.83;;;22.30;66.70;;;;;;4955803;28;20055;-77
2022/08/24 00:20:34;;;;;;;29.52;24.02;;;22.30;67.00;;;;;;4956291;28;20044;-77
2022/08/24 00:23:00;;;;;;;31.35;25.20;;;22.20;67.20;;;;;;4973346;28;20077;-77
2022/08/24 00:25:30;;;;;;;30.77;23.63;;;22.20;67.20;;;;;;4973379;28;20138;-77
2022/08/24 00:27:57;;;;;;;28.10;22.92;;;22.20;67.20;;;;;;4973287;28;20505;-76
2022/08/24 00:30:25;;;;;;;29.13;22.67;;;22.20;67.20;;;;;;4971574;28;20055;-77
2022/08/24 00:32:53;;;;;;;27.02;21.17;;;22.10;67.20;;;;;;4956230;28;20537;-76
2022/08/24 00:35:20;;;;;;;26.33;21.25;;;22.10;67.10;;;;;;4972364;28;20077;-77
2022/08/24 00:37:49;;;;;;;24.43;20.70;;;22.10;67.10;;;;;;4972253;28;20154;-77
2022/08/24 00:40:20;;;;;;;27.95;22.08;;;22.10;67.30;;;;;;4973111;28;20058;-77
2022/08/24 00:42:50;;;;;;;24.88;20.38;;;22.00;67.20;;;;;;4956061;28;20053;-76
2022/08/24 00:45:18;;;;;;;26.73;21.83;;;21.90;67.20;;;;;;4955792;28;20051;-76
2022/08/24 00:47:49;;;;;;;26.55;21.05;;;21.90;67.30;;;;;;4973232;28;20051;-76
2022/08/24 00:50:22;;;;;;;26.53;21.53;;;21.90;67.40;;;;;;4955720;28;20498;-77
2022/08/24 00:52:52;;;;;;;27.48;21.25;;;21.80;67.50;;;;;;4955423;28;20501;-77
2022/08/24 00:55:23;;;;;;;27.42;22.60;;;21.80;67.30;;;;;;4955377;28;20047;-76
2022/08/24 00:57:54;;;;;;;33.83;25.45;;;21.70;67.20;;;;;;4955695;28;20143;-77
2022/08/24 01:00:25;;;;;;;30.45;23.65;;;21.70;67.40;;;;;;4955220;28;20513;-77
2022/08/24 01:02:57;;;;;;;27.47;21.93;;;21.70;67.60;;;;;;4955903;28;20050;-77
2022/08/24 01:05:24;;;;;;;22.38;19.15;;;21.70;67.80;;;;;;4971696;28;20058;-77
2022/08/24 01:07:51;;;;;;;25.35;21.02;;;21.70;67.70;;;;;;4971913;28;20057;-77
2022/08/24 01:10:23;;;;;;;23.92;18.85;;;21.70;67.80;;;;;;4955506;28;20665;-77
2022/08/24 01:12:56;;;;;;;29.17;20.67;;;21.70;67.80;;;;;;4955412;28;20553;-77
2022/08/24 01:15:23;;;;;;;26.13;20.77;;;21.70;67.50;;;;;;4955273;28;20438;-77
2022/08/24 01:20:36;;;;;;;17.40;15.48;;;21.60;68.00;;;;;;4955343;28;20059;-77
2022/08/24 01:23:08;;;;;;;25.70;20.60;;;21.50;68.00;;;;;;4955220;28;20106;-76
2022/08/24 01:25:38;;;;;;;30.15;23.90;;;21.50;68.40;;;;;;4971377;28;20138;-76
2022/08/24 01:28:09;;;;;;;25.13;19.70;;;21.50;68.50;;;;;;4954303;28;20407;-77
2022/08/24 01:30:36;;;;;;;27.23;20.30;;;21.50;68.30;;;;;;4954722;28;20183;-76
2022/08/24 01:33:09;;;;;;;28.02;22.23;;;21.40;68.20;;;;;;4971364;28;20063;-77
2022/08/24 01:35:39;;;;;;;34.13;24.63;;;21.40;68.00;;;;;;4954949;28;20549;-77
2022/08/24 01:38:11;;;;;;;24.08;19.33;;;21.40;68.20;;;;;;4954787;28;20532;-77
2022/08/24 01:40:45;;;;;;;24.07;19.50;;;21.40;68.20;;;;;;4971001;28;20055;-76
2022/08/24 01:43:13;;;;;;;26.30;19.83;;;21.40;68.30;;;;;;4971367;28;20103;-76
2022/08/24 01:45:41;;;;;;;26.05;20.88;;;21.30;68.40;;;;;;4971161;28;20056;-76
2022/08/24 01:48:08;;;;;;;25.17;21.00;;;21.30;68.50;;;;;;4955269;28;20086;-77
2022/08/24 01:50:35;;;;;;;26.63;21.17;;;21.20;68.50;;;;;;4972363;28;20065;-77
2022/08/24 01:53:04;;;;;;;23.77;20.13;;;21.20;68.50;;;;;;4971043;28;20584;-76
2022/08/24 01:55:32;;;;;;;24.80;20.63;;;21.10;68.60;;;;;;4970673;28;20051;-76
2022/08/24 01:58:01;;;;;;;23.08;20.02;;;21.10;68.60;;;;;;4954642;28;20575;-77
2022/08/24 02:00:30;;;;;;;27.83;21.73;;;21.10;68.70;;;;;;4970667;28;20536;-77
2022/08/24 02:02:57;;;;;;;30.00;23.17;;;21.10;68.60;;;;;;4986719;28;20043;-77
2022/08/24 02:05:24;;;;;;;27.27;20.00;;;21.10;68.60;;;;;;4970665;28;20051;-76
2022/08/24 02:07:52;;;;;;;23.77;19.75;;;21.10;68.60;;;;;;4970646;28;20135;-76
2022/08/24 02:10:22;;;;;;;23.88;19.35;;;21.10;68.30;;;;;;4970085;28;20051;-76
2022/08/24 02:12:57;;;;;;;21.02;18.00;;;21.10;68.40;;;;;;4954788;28;20055;-77
2022/08/24 02:15:29;;;;;;;21.67;16.63;;;21.00;68.70;;;;;;4954677;28;20047;-76
2022/08/24 02:17:57;;;;;;;23.77;19.33;;;21.00;68.80;;;;;;4954569;28;20043;-76
2022/08/24 02:20:26;;;;;;;29.48;21.88;;;21.00;68.90;;;;;;4954191;28;20118;-77
2022/08/24 02:22:53;;;;;;;27.75;22.38;;;20.90;69.00;;;;;;4954196;28;20051;-76
2022/08/24 02:25:22;;;;;;;32.03;23.60;;;20.90;69.10;;;;;;4970576;28;20061;-76
2022/08/24 02:27:49;;;;;;;32.72;24.70;;;20.80;69.20;;;;;;4970722;28;20051;-76
2022/08/24 02:30:17;;;;;;;32.17;23.77;;;20.80;69.10;;;;;;4954289;28;20509;-76
2022/08/24 02:32:46;;;;;;;31.77;23.90;;;20.70;69.10;;;;;;4954190;28;20047;-76
2022/08/24 02:35:13;;;;;;;22.02;18.38;;;20.70;69.10;;;;;;4970414;28;20239;-76
2022/08/24 02:37:40;;;;;;;21.20;18.27;;;20.70;69.20;;;;;;4954404;28;20138;-76
2022/08/24 02:40:09;;;;;;;20.42;17.10;;;20.70;69.20;;;;;;4969620;28;20130;-76
2022/08/24 02:42:37;;;;;;;23.57;18.70;;;20.70;69.40;;;;;;4953816;28;20039;-77
2022/08/24 02:45:05;;;;;;;21.55;18.58;;;20.70;69.30;;;;;;4953793;28;20051;-77
2022/08/24 02:47:32;;;;;;;21.27;17.40;;;20.60;69.30;;;;;;4954256;28;20126;-76
2022/08/24 02:50:01;;;;;;;22.05;17.92;;;20.60;69.10;;;;;;4970138;28;20051;-76
2022/08/24 02:52:29;;;;;;;20.92;16.63;;;20.60;69.30;;;;;;4953771;28;20166;-76
2022/08/24 02:54:56;;;;;;;20.40;16.40;;;20.60;69.40;;;;;;4953551;28;20122;-76
2022/08/24 02:57:23;;;;;;;18.65;15.55;;;20.50;69.40;;;;;;4970305;28;20054;-76
2022/08/24 02:59:50;;;;;;;21.17;17.42;;;20.50;69.40;;;;;;4969667;28;20522;-77
2022/08/24 03:02:17;;;;;;;18.98;15.50;;;20.50;69.20;;;;;;4969729;28;20059;-77
2022/08/24 03:04:45;;;;;;;20.52;16.30;;;20.50;69.20;;;;;;4953874;28;20663;-77
2022/08/24 03:07:14;;;;;;;19.43;15.43;;;20.40;69.30;;;;;;4953813;28;20170;-76
2022/08/24 03:09:41;;;;;;;24.80;17.38;;;20.40;69.40;;;;;;4953331;28;20465;-77
2022/08/24 03:12:09;;;;;;;21.45;17.83;;;20.30;69.20;;;;;;4953841;28;20063;-77
2022/08/24 03:14:37;;;;;;;22.52;18.85;;;20.30;69.10;;;;;;4953694;28;20526;-76
2022/08/24 03:17:05;;;;;;;24.98;19.17;;;20.30;69.10;;;;;;4970697;28;20145;-77
2022/08/24 03:19:32;;;;;;;23.40;16.63;;;20.30;69.10;;;;;;4969409;28;20079;-76
2022/08/24 03:21:59;;;;;;;21.02;16.35;;;20.30;69.00;;;;;;4953730;28;20043;-76
2022/08/24 03:24:27;;;;;;;19.45;15.60;;;20.30;69.20;;;;;;4953688;28;20138;-76
2022/08/24 03:26:55;;;;;;;19.42;15.88;;;20.30;69.30;;;;;;4970144;28;20520;-77
2022/08/24 03:29:22;;;;;;;21.25;17.33;;;20.20;69.40;;;;;;4953464;28;20044;-76
2022/08/24 03:31:49;;;;;;;23.57;18.37;;;20.10;69.60;;;;;;4969768;28;20602;-76
2022/08/24 03:34:16;;;;;;;25.48;18.50;;;20.10;69.80;;;;;;4953458;28;20426;-76
2022/08/24 03:36:45;;;;;;;27.50;21.27;;;20.00;69.90;;;;;;4953752;28;20059;-76
2022/08/24 03:39:14;;;;;;;23.73;18.38;;;20.00;70.00;;;;;;4969662;28;20658;-76
2022/08/24 03:41:42;;;;;;;24.58;17.65;;;20.00;69.80;;;;;;4969555;28;20106;-76
2022/08/24 03:44:09;;;;;;;23.87;18.43;;;19.90;69.80;;;;;;4953508;28;20051;-76
2022/08/24 03:46:38;;;;;;;25.27;18.60;;;19.90;69.80;;;;;;4953220;28;20138;-76
2022/08/24 03:49:08;;;;;;;18.63;14.70;;;19.90;69.90;;;;;;4953293;28;20062;-76
2022/08/24 03:51:37;;;;;;;20.40;15.75;;;19.80;69.80;;;;;;4954512;28;20123;-76
2022/08/24 03:54:09;;;;;;;24.25;17.80;;;19.80;69.70;;;;;;4972539;28;20102;-76
2022/08/24 03:56:36;;;;;;;25.33;17.63;;;19.70;69.70;;;;;;4972581;28;20079;-77
2022/08/24 03:59:06;;;;;;;21.60;15.85;;;19.70;69.90;;;;;;4956134;28;20055;-76
2022/08/24 04:01:39;;;;;;;25.48;16.90;;;19.70;69.90;;;;;;4972809;28;20062;-76
2022/08/24 04:04:08;;;;;;;24.85;17.38;;;19.70;69.70;;;;;;4956104;28;20053;-76
2022/08/24 04:06:36;;;;;;;33.28;19.70;;;19.70;69.60;;;;;;4955989;28;20529;-76
2022/08/24 04:09:04;;;;;;;25.63;18.23;;;19.70;69.70;;;;;;4955956;28;20549;-76
2022/08/24 04:11:35;;;;;;;24.88;17.33;;;19.70;69.70;;;;;;4956307;28;20050;-76
2022/08/24 04:14:02;;;;;;;25.60;18.23;;;19.70;69.80;;;;;;4956435;28;20425;-76
2022/08/24 04:16:30;;;;;;;25.50;16.25;;;19.70;69.80;;;;;;4956138;28;20122;-77
2022/08/24 04:19:10;;;;;;;17.98;14.18;;;19.70;69.90;;;;;;4956000;28;20090;-76
2022/08/24 04:21:37;;;;;;;19.27;14.80;;;19.70;69.90;;;;;;4955944;28;20102;-76
2022/08/24 04:24:09;;;;;;;19.25;14.93;;;19.60;69.90;;;;;;4956138;28;20551;-76
2022/08/24 04:26:39;;;;;;;21.98;15.32;;;19.60;70.10;;;;;;4955841;28;20043;-76
2022/08/24 04:29:08;;;;;;;13.95;11.70;;;19.60;70.20;;;;;;4955692;28;20078;-76
2022/08/24 04:31:40;;;;;;;12.10;10.63;;;19.50;70.10;;;;;;4955900;28;20058;-76
2022/08/24 04:34:08;;;;;;;9.77;8.50;;;19.50;70.30;;;;;;4971833;28;20059;-77
2022/08/24 04:36:39;;;;;;;12.70;9.85;;;19.50;70.50;;;;;;4973021;28;20154;-76
2022/08/24 04:39:06;;;;;;;15.80;12.40;;;19.50;70.70;;;;;;4955466;28;20138;-76
2022/08/24 04:42:00;;;;;;;16.83;12.77;;;19.40;70.70;;;;;;4939708;28;20732;-76
2022/08/24 04:44:30;;;;;;;20.17;15.45;;;19.40;70.60;;;;;;4955623;28;20043;-76
2022/08/24 04:47:01;;;;;;;20.03;14.37;;;19.40;70.50;;;;;;4955863;28;20047;-76
2022/08/24 04:49:30;;;;;;;20.45;15.27;;;19.40;70.60;;;;;;4971790;28;20078;-76
2022/08/24 04:51:57;;;;;;;14.75;11.25;;;19.40;70.60;;;;;;4955279;28;20051;-76
2022/08/24 04:54:24;;;;;;;13.55;10.65;;;19.40;70.70;;;;;;4955517;28;20054;-76
2022/08/24 04:57:05;;;;;;;14.35;11.50;;;19.40;70.70;;;;;;4955402;28;20143;-77
2022/08/24 04:59:33;;;;;;;14.93;11.40;;;19.30;70.80;;;;;;4955205;28;20047;-76
2022/08/24 05:02:03;;;;;;;14.35;11.13;;;19.30;70.80;;;;;;4972481;28;20063;-77
2022/08/24 05:04:30;;;;;;;14.82;11.75;;;19.30;70.90;;;;;;4954762;28;20342;-77
2022/08/24 05:06:57;;;;;;;16.00;11.80;;;19.30;70.90;;;;;;4971870;28;20583;-77
2022/08/24 05:09:24;;;;;;;17.00;12.10;;;19.30;70.70;;;;;;4955131;28;20051;-77
2022/08/24 05:11:52;;;;;;;22.87;11.97;;;19.20;70.80;;;;;;4971453;28;20082;-77
2022/08/24 05:14:23;;;;;;;19.65;12.15;;;19.30;70.80;;;;;;4955227;28;20059;-77
2022/08/24 05:16:49;;;;;;;18.75;12.15;;;19.20;71.20;;;;;;4955182;28;20118;-77
2022/08/24 05:19:18;;;;;;;26.70;15.38;;;19.20;71.50;;;;;;4971508;28;20210;-77
2022/08/24 05:21:45;;;;;;;46.15;19.05;;;19.20;71.80;;;;;;4955492;28;20542;-77
2022/08/24 05:24:12;;;;;;;44.07;20.07;;;19.20;71.90;;;;;;4955366;28;20145;-77
2022/08/24 05:26:39;;;;;;;76.63;22.55;;;19.10;71.70;;;;;;4955061;28;20051;-77
2022/08/24 05:29:06;;;;;;;46.95;21.25;;;19.20;71.70;;;;;;4972311;28;20055;-77
2022/08/24 05:31:44;;;;;;;67.65;24.30;;;19.10;71.80;;;;;;4971196;28;20717;-77
2022/08/24 05:34:13;;;;;;;46.03;22.77;;;19.10;71.80;;;;;;4954991;28;20059;-77
2022/08/24 05:36:42;;;;;;;31.17;19.90;;;19.10;71.80;;;;;;4954972;28;20139;-77
2022/08/24 05:39:15;;;;;;;30.95;20.27;;;19.10;72.50;;;;;;4955165;28;20514;-77
2022/08/24 05:41:50;;;;;;;29.65;20.80;;;19.10;72.30;;;;;;4955329;28;20075;-77
2022/08/24 05:44:25;;;;;;;29.90;22.25;;;19.10;72.20;;;;;;4971211;28;20073;-77
2022/08/24 05:46:53;;;;;;;28.08;19.80;;;19.10;72.30;;;;;;4954939;28;20680;-78
2022/08/24 05:49:20;;;;;;;37.37;22.87;;;19.10;72.40;;;;;;4970868;28;20589;-78
2022/08/24 05:51:48;;;;;;;37.35;23.92;;;19.10;72.50;;;;;;4954734;28;20134;-77
2022/08/24 05:54:17;;;;;;;36.90;24.10;;;19.10;72.90;;;;;;4971057;28;20158;-78
2022/08/24 05:57:03;;;;;;;47.15;25.02;;;19.10;73.50;;;;;;4987273;28;20052;-77
2022/08/24 05:59:32;;;;;;;39.25;24.00;;;19.10;74.00;;;;;;4954648;28;20051;-78
2022/08/24 06:02:02;;;;;;;39.93;25.40;;;19.10;75.20;;;;;;4970809;28;20075;-78
2022/08/24 06:04:30;;;;;;;34.63;23.15;;;19.10;75.90;;;;;;4954523;28;20048;-78
2022/08/24 06:06:58;;;;;;;37.95;24.33;;;19.10;75.10;;;;;;4954631;28;20086;-78
2022/08/24 06:09:25;;;;;;;42.28;29.63;;;19.10;75.90;;;;;;4970439;28;20572;-78
2022/08/24 06:11:52;;;;;;;42.97;32.03;;;19.10;76.00;;;;;;4970794;28;20079;-78
2022/08/24 06:14:19;;;;;;;47.47;32.90;;;19.10;76.90;;;;;;4954019;28;20079;-78
2022/08/24 06:16:53;;;;;;;44.72;31.17;;;19.10;77.10;;;;;;4970698;28;20062;-78
2022/08/24 06:19:22;;;;;;;47.63;34.22;;;19.10;78.10;;;;;;4953890;28;20520;-78
2022/08/24 06:21:51;;;;;;;48.08;34.15;;;19.20;78.60;;;;;;4970289;28;20063;-78
2022/08/24 06:27:19;;;;;;;49.35;35.35;;;19.20;78.80;;;;;;4954210;28;20496;-78
2022/08/24 06:30:00;;;;;;;49.67;35.53;;;19.20;79.30;;;;;;4943356;28;20047;-78
2022/08/24 06:32:48;;;;;;;50.25;35.10;;;19.30;79.50;;;;;;4959556;28;20166;-78
2022/08/24 06:35:37;;;;;;;49.67;35.63;;;19.30;79.70;;;;;;4951131;28;20059;-78
2022/08/24 06:38:06;;;;;;;53.17;36.08;;;19.40;80.50;;;;;;4970239;28;20073;-78
2022/08/24 06:40:35;;;;;;;51.17;37.33;;;19.50;80.00;;;;;;4953902;28;20561;-78
2022/08/24 06:43:03;;;;;;;53.70;38.67;;;19.50;80.00;;;;;;4970130;28;20094;-78
2022/08/24 06:45:49;;;;;;;52.25;37.22;;;19.50;80.20;;;;;;4954612;28;20054;-78
2022/08/24 06:48:18;;;;;;;48.03;34.50;;;19.60;80.10;;;;;;4970328;28;20063;-78
2022/08/24 06:50:47;;;;;;;48.95;35.13;;;19.70;80.30;;;;;;4970378;28;20062;-78
2022/08/24 06:53:14;;;;;;;47.10;34.23;;;19.70;80.30;;;;;;4969904;28;20051;-78
2022/08/24 06:55:46;;;;;;;53.17;36.88;;;19.70;80.60;;;;;;4953692;28;20122;-78
2022/08/24 06:58:13;;;;;;;53.90;37.45;;;19.80;80.50;;;;;;4953949;28;20577;-78
2022/08/24 07:00:40;;;;;;;49.92;35.85;;;19.90;80.50;;;;;;4953539;28;20055;-79
2022/08/24 07:03:07;;;;;;;47.83;35.50;;;20.00;80.70;;;;;;4954038;28;20055;-78
2022/08/24 07:05:36;;;;;;;53.27;35.73;;;20.00;80.90;;;;;;4954121;28;20051;-78
2022/08/24 07:08:32;;;;;;;44.63;32.33;;;20.00;81.00;;;;;;4969900;28;20047;-78
2022/08/24 07:11:01;;;;;;;42.65;32.10;;;20.10;81.10;;;;;;4953995;28;20090;-78
2022/08/24 07:13:29;;;;;;;45.78;34.10;;;20.20;81.00;;;;;;4953692;28;20106;-78
2022/08/24 07:15:58;;;;;;;46.63;33.40;;;20.30;81.00;;;;;;4953750;28;20047;-78
2022/08/24 07:18:27;;;;;;;46.23;33.87;;;20.30;81.10;;;;;;4953713;28;20106;-79
2022/08/24 07:20:55;;;;;;;44.40;33.10;;;20.30;81.10;;;;;;4953563;28;20062;-78
2022/08/24 07:23:26;;;;;;;40.53;30.45;;;20.50;81.20;;;;;;4953718;28;20047;-78
2022/08/24 07:25:53;;;;;;;43.22;31.58;;;20.50;81.20;;;;;;4954099;28;20047;-78
2022/08/24 07:28:23;;;;;;;36.92;29.73;;;20.50;81.10;;;;;;4957131;28;20047;-78
2022/08/24 07:30:50;;;;;;;39.07;29.50;;;20.60;81.00;;;;;;4956937;28;20062;-78
2022/08/24 07:33:17;;;;;;;40.63;29.98;;;20.70;80.70;;;;;;4972826;28;20160;-78
2022/08/24 07:35:45;;;;;;;41.15;29.48;;;20.70;80.50;;;;;;4957122;28;20054;-78
2022/08/24 07:38:13;;;;;;;36.47;28.45;;;20.80;80.50;;;;;;4973209;28;20055;-78
2022/08/24 07:40:40;;;;;;;38.67;30.70;;;20.80;80.20;;;;;;4972722;28;20051;-78
2022/08/24 07:43:07;;;;;;;32.50;27.17;;;20.90;80.20;;;;;;4956622;28;20044;-78
2022/08/24 07:45:36;;;;;;;40.10;28.92;;;21.00;80.00;;;;;;4956534;28;20058;-78
2022/08/24 07:48:04;;;;;;;36.30;27.73;;;21.10;80.00;;;;;;4956615;28;20054;-78
2022/08/24 07:50:42;;;;;;;34.35;26.40;;;21.10;79.80;;;;;;4956420;28;20565;-78
2022/08/24 07:53:09;;;;;;;35.90;28.38;;;21.10;79.70;;;;;;4956812;28;20047;-78
2022/08/24 07:55:36;;;;;;;30.13;25.60;;;21.20;79.50;;;;;;4956602;28;20142;-78
2022/08/24 07:58:04;;;;;;;24.65;20.40;;;21.30;79.30;;;;;;4956711;28;20043;-78
2022/08/24 08:00:31;;;;;;;22.55;19.30;;;21.40;79.10;;;;;;4955536;28;20055;-78
2022/08/24 08:03:04;;;;;;;23.45;18.80;;;21.40;78.80;;;;;;4972542;28;20063;-78
2022/08/24 08:05:38;;;;;;;25.55;20.30;;;21.50;78.70;;;;;;4972444;28;20062;-78
2022/08/24 08:08:05;;;;;;;23.53;18.30;;;21.50;78.50;;;;;;4956521;28;20066;-78
2022/08/24 08:10:34;;;;;;;27.17;19.98;;;21.60;78.20;;;;;;4956255;28;20506;-78
2022/08/24 08:13:02;;;;;;;29.17;21.30;;;21.70;78.00;;;;;;4972484;28;20482;-78
2022/08/24 08:15:29;;;;;;;24.48;19.63;;;21.70;77.70;;;;;;4972290;28;20133;-78
2022/08/24 08:18:04;;;;;;;24.42;19.58;;;21.70;77.50;;;;;;4956754;28;20134;-78
2022/08/24 08:20:33;;;;;;;23.87;19.47;;;21.80;77.40;;;;;;4956003;28;20123;-78
2022/08/24 08:25:57;;;;;;;24.38;19.40;;;21.90;76.90;;;;;;4972349;28;21091;-78
2022/08/24 08:28:34;;;;;;;25.13;18.23;;;22.00;76.60;;;;;;4955854;28;20047;-78
2022/08/24 08:31:04;;;;;;;21.58;17.17;;;22.10;76.30;;;;;;4955636;28;20055;-77
2022/08/24 08:33:32;;;;;;;21.43;15.57;;;22.20;75.90;;;;;;4971956;28;20075;-77
2022/08/24 08:36:05;;;;;;;23.42;18.10;;;22.30;75.70;;;;;;4955820;28;20053;-78
2022/08/24 08:38:32;;;;;;;21.80;18.48;;;22.30;75.40;;;;;;4955597;28;20047;-78
2022/08/24 08:41:20;;;;;;;23.45;19.17;;;22.40;75.10;;;;;;4971635;28;20066;-78
2022/08/24 08:44:06;;;;;;;21.00;16.50;;;22.50;74.80;;;;;;4972233;28;20052;-77
2022/08/24 08:46:45;;;;;;;21.97;16.13;;;22.50;74.70;;;;;;4955704;28;20070;-78
2022/08/24 08:49:56;;;;;;;18.92;14.50;;;22.60;74.40;;;;;;4973310;28;20055;-77
2022/08/24 08:52:53;;;;;;;18.83;15.38;;;22.60;74.10;;;;;;4955744;28;20381;-77
2022/08/24 08:55:36;;;;;;;19.65;14.75;;;22.70;74.00;;;;;;4971114;28;20047;-78
2022/08/24 08:58:17;;;;;;;16.92;14.57;;;22.80;73.50;;;;;;4971635;28;20134;-77
2022/08/24 09:00:55;;;;;;;17.50;14.53;;;22.90;73.10;;;;;;4971453;28;20051;-77
2022/08/24 09:03:51;;;;;;;19.83;15.23;;;22.90;73.00;;;;;;4955660;28;20044;-78
2022/08/24 09:07:02;;;;;;;40.67;17.45;;;23.00;72.90;;;;;;4965178;28;20079;-77
2022/08/24 09:10:02;;;;;;;18.35;14.57;;;23.10;73.10;;;;;;4971547;28;20055;-78
2022/08/24 09:12:45;;;;;;;18.42;14.10;;;23.10;73.40;;;;;;4954388;28;20051;-77
2022/08/24 09:15:38;;;;;;;16.00;11.97;;;23.20;73.40;;;;;;4955341;28;20044;-77
2022/08/24 09:18:25;;;;;;;14.05;10.00;;;23.40;73.40;;;;;;4955063;28;20048;-78
2022/08/24 09:21:27;;;;;;;15.73;10.68;;;23.50;73.00;;;;;;4954927;28;20549;-78
2022/08/24 09:24:06;;;;;;;17.15;12.07;;;23.60;72.20;;;;;;4971213;28;20130;-77
2022/08/24 09:26:42;;;;;;;15.05;11.23;;;23.60;71.70;;;;;;4955294;28;20491;-77
2022/08/24 09:29:15;;;;;;;15.67;13.10;;;23.80;71.00;;;;;;4971261;28;20055;-77
2022/08/24 09:31:57;;;;;;;15.45;10.68;;;23.80;70.60;;;;;;4955136;28;20078;-78
2022/08/24 09:34:34;;;;;;;14.48;10.55;;;23.90;70.60;;;;;;4972455;28;20055;-78
2022/08/24 09:37:15;;;;;;;13.15;10.80;;;24.00;70.50;;;;;;4955105;28;20055;-78
2022/08/24 09:40:00;;;;;;;17.58;13.38;;;24.00;70.70;;;;;;4954855;28;20051;-77
2022/08/24 09:43:10;;;;;;;16.93;13.93;;;24.10;70.40;;;;;;4954776;28;20055;-77
2022/08/24 09:46:06;;;;;;;16.52;12.32;;;24.20;69.60;;;;;;4954885;28;20134;-78
2022/08/24 09:49:18;;;;;;;14.32;11.18;;;24.20;69.20;;;;;;4970142;28;20126;-78
2022/08/24 09:52:09;;;;;;;14.48;12.65;;;24.40;69.40;;;;;;4955010;28;20052;-78
2022/08/24 09:54:57;;;;;;;16.30;11.48;;;24.40;69.40;;;;;;4955059;28;20110;-77
2022/08/24 09:57:47;;;;;;;15.43;11.60;;;24.50;69.40;;;;;;4972199;28;20055;-77
2022/08/24 10:00:21;;;;;;;13.35;9.55;;;24.60;69.00;;;;;;4962818;28;20055;-77
2022/08/24 10:03:11;;;;;;;14.05;11.15;;;24.70;68.50;;;;;;4954836;28;20050;-77
2022/08/24 10:06:03;;;;;;;11.40;9.48;;;24.80;68.50;;;;;;4970983;28;20493;-78
2022/08/24 10:08:42;;;;;;;13.55;10.38;;;25.00;68.90;;;;;;4972344;28;20129;-78
2022/08/24 10:11:21;;;;;;;15.47;12.07;;;25.00;68.90;;;;;;4972245;28;20058;-78
2022/08/24 10:13:59;;;;;;;11.57;9.10;;;25.10;68.30;;;;;;4972137;28;20418;-78
2022/08/24 10:16:37;;;;;;;12.15;8.88;;;25.20;67.30;;;;;;4972318;28;20139;-78
2022/08/24 10:19:37;;;;;;;11.10;8.63;;;25.30;66.90;;;;;;4971508;28;20134;-78
2022/08/24 10:22:14;;;;;;;12.13;9.15;;;25.40;66.30;;;;;;4970315;28;20500;-78
2022/08/24 10:25:00;;;;;;;12.03;7.97;;;25.50;66.20;;;;;;4971585;28;20142;-77
2022/08/24 10:27:45;;;;;;;9.15;6.50;;;25.50;65.90;;;;;;4970541;28;20059;-77
2022/08/24 10:30:42;;;;;;;8.10;6.53;;;25.60;65.20;;;;;;4971540;28;20403;-77
2022/08/24 10:33:19;;;;;;;8.85;5.13;;;25.60;64.40;;;;;;4954021;28;20078;-78
2022/08/24 10:36:04;;;;;;;7.80;4.28;;;25.70;65.00;;;;;;4970577;28;20154;-78
2022/08/24 10:41:54;;;;;;;6.30;5.68;;;25.80;64.40;;;;;;4971768;28;20117;-78
2022/08/24 10:44:42;;;;;;;9.90;6.72;;;25.90;63.70;;;;;;4970578;28;20074;-78
2022/08/24 10:47:19;;;;;;;8.18;6.03;;;26.00;63.50;;;;;;4953920;28;20126;-77
2022/08/24 10:50:35;;;;;;;7.70;6.03;;;26.00;63.50;;;;;;4954197;28;20063;-78
2022/08/24 10:53:24;;;;;;;6.97;6.10;;;26.10;62.90;;;;;;4920139;28;20063;-77
2022/08/24 10:56:05;;;;;;;8.25;5.80;;;26.20;62.90;;;;;;4953845;28;20049;-78
2022/08/24 10:58:50;;;;;;;7.32;4.93;;;26.20;62.50;;;;;;4954007;28;20048;-78
2022/08/24 11:01:30;;;;;;;6.05;4.57;;;26.40;62.40;;;;;;4956420;28;20524;-78
2022/08/24 11:04:01;;;;;;;7.10;4.70;;;26.40;62.40;;;;;;4957532;28;20043;-78
2022/08/24 11:06:31;;;;;;;6.13;4.33;;;26.50;62.10;;;;;;4975076;28;20057;-78
2022/08/24 11:09:02;;;;;;;8.55;5.18;;;26.60;62.10;;;;;;4957059;28;20056;-78
2022/08/24 11:11:32;;;;;;;9.63;6.63;;;26.70;61.70;;;;;;4973435;28;20118;-77
2022/08/24 11:14:01;;;;;;;6.40;4.78;;;26.80;61.30;;;;;;4957446;28;20051;-78
2022/08/24 11:16:35;;;;;;;6.88;3.95;;;26.90;60.50;;;;;;4974659;28;20075;-78
2022/08/24 11:19:05;;;;;;;7.63;5.37;;;27.00;60.40;;;;;;4957247;28;20559;-78
2022/08/24 11:21:43;;;;;;;9.05;5.65;;;27.10;60.30;;;;;;4956938;28;20051;-78
2022/08/24 11:24:23;;;;;;;7.20;4.45;;;27.20;60.50;;;;;;4957085;28;20058;-78
2022/08/24 11:26:54;;;;;;;6.43;4.70;;;27.30;60.90;;;;;;4973403;28;20516;-77
2022/08/24 11:29:26;;;;;;;6.05;4.22;;;27.30;61.10;;;;;;4956869;28;20047;-77
2022/08/24 11:31:54;;;;;;;5.73;4.00;;;27.50;61.10;;;;;;4956991;28;20130;-78
2022/08/24 11:34:33;;;;;;;5.25;4.15;;;27.50;61.40;;;;;;4956843;28;20071;-78
2022/08/24 11:37:00;;;;;;;6.57;4.22;;;27.70;61.10;;;;;;4957431;28;20059;-78
2022/08/24 11:39:32;;;;;;;7.88;3.92;;;27.80;60.70;;;;;;4974121;28;20518;-78
2022/08/24 11:42:03;;;;;;;5.18;3.55;;;27.90;60.50;;;;;;4972911;28;20508;-78
2022/08/24 11:44:39;;;;;;;5.03;3.40;;;28.00;60.80;;;;;;4974312;28;20082;-78
2022/08/24 11:47:24;;;;;;;5.72;3.35;;;28.10;59.60;;;;;;4956590;28;20137;-77
2022/08/24 11:50:00;;;;;;;48.75;6.50;;;28.20;58.10;;;;;;4956145;28;20106;-77
2022/08/24 11:52:39;;;;;;;11.50;2.80;;;28.30;57.50;;;;;;4974420;28;20186;-78
2022/08/24 11:55:14;;;;;;;4.47;2.85;;;28.30;57.30;;;;;;4956369;28;20550;-77
2022/08/24 11:57:47;;;;;;;3.97;2.50;;;28.30;56.80;;;;;;4973119;28;20051;-78
2022/08/24 12:00:18;;;;;;;4.30;2.63;;;28.40;57.00;;;;;;4973715;28;20059;-78
2022/08/24 12:02:59;;;;;;;4.78;3.28;;;28.50;56.80;;;;;;4956668;28;20444;-78
2022/08/24 12:05:34;;;;;;;6.05;4.03;;;28.50;57.60;;;;;;4974220;28;20063;-78
2022/08/24 12:08:10;;;;;;;5.22;3.78;;;28.50;56.40;;;;;;4956713;28;20051;-78
2022/08/24 12:10:45;;;;;;;5.03;3.50;;;28.50;57.20;;;;;;4956335;28;20114;-78
2022/08/24 12:13:30;;;;;;;4.85;3.10;;;28.60;57.80;;;;;;4955958;28;20110;-78
2022/08/24 12:16:07;;;;;;;15.10;4.03;;;28.70;58.00;;;;;;4972764;28;20059;-78
2022/08/24 12:18:47;;;;;;;6.60;3.22;;;28.80;57.90;;;;;;4973972;28;20055;-78
2022/08/24 12:21:17;;;;;;;11.13;3.58;;;28.90;58.00;;;;;;4956282;28;20063;-78
2022/08/24 12:23:47;;;;;;;6.30;3.10;;;29.00;57.90;;;;;;4956169;28;20492;-78
2022/08/24 12:26:22;;;;;;;6.28;2.85;;;29.10;57.90;;;;;;4956179;28;20055;-78
2022/08/24 12:28:52;;;;;;;4.03;2.65;;;29.20;57.70;;;;;;4956322;28;20086;-78
2022/08/24 12:31:23;;;;;;;5.13;2.50;;;29.30;58.20;;;;;;4956083;28;20134;-78
2022/08/24 12:33:56;;;;;;;5.43;2.47;;;29.40;57.60;;;;;;4955785;28;20129;-78
2022/08/24 12:36:28;;;;;;;4.50;2.90;;;29.50;56.90;;;;;;4956138;28;20055;-78
2022/08/24 12:39:08;;;;;;;4.55;2.70;;;29.50;55.80;;;;;;4955728;28;20052;-78
2022/08/24 12:41:41;;;;;;;5.53;3.15;;;29.50;54.70;;;;;;4973668;28;20103;-78
2022/08/24 12:44:13;;;;;;;5.00;2.70;;;29.60;53.80;;;;;;4956300;28;20648;-78
2022/08/24 12:46:42;;;;;;;3.75;2.38;;;29.70;54.20;;;;;;4973629;28;20720;-78
2022/08/24 12:49:18;;;;;;;3.60;2.30;;;29.70;54.20;;;;;;4973464;28;20065;-78
2022/08/24 12:52:21;;;;;;;4.82;2.90;;;29.80;55.20;;;;;;4973566;28;20055;-78
2022/08/24 12:55:18;;;;;;;4.57;2.60;;;29.90;54.60;;;;;;4973168;28;20142;-78
2022/08/24 12:57:52;;;;;;;6.15;3.33;;;30.00;54.30;;;;;;4955240;28;20106;-78
2022/08/24 13:00:22;;;;;;;4.80;3.20;;;30.00;53.30;;;;;;4973149;28;20624;-78
2022/08/24 13:02:58;;;;;;;4.53;2.67;;;30.00;52.20;;;;;;4955655;28;20047;-78
2022/08/24 13:05:39;;;;;;;5.18;3.00;;;30.00;52.80;;;;;;4955486;28;20051;-78
2022/08/24 13:08:12;;;;;;;4.38;3.13;;;30.00;53.10;;;;;;4955940;28;20079;-78
2022/08/24 13:10:44;;;;;;;5.28;2.90;;;30.00;53.00;;;;;;4971744;28;20043;-78
2022/08/24 13:13:16;;;;;;;4.00;2.83;;;30.00;53.60;;;;;;4973094;28;20114;-78